sensor_id;sensor_type;location;lat;lon;timestamp;pressure;altitude;pressure_sealevel;temperature;humidity
80393;BME280;69719;45.544;10.218;2023-11-21T00:02:02;99451.09;;;11.67;100.00
80393;BME280;69719;45.544;10.218;2023-11-21T00:04:29;99455.88;;;11.70;100.00
80393;BME280;69719;45.544;10.218;2023-11-21T00:06:55;99455.56;;;11.83;100.00
80393;BME280;69719;45.544;10.218;2023-11-21T00:09:21;99451.06;;;11.78;100.00
80393;BME280;69719;45.544;10.218;2023-11-21T00:11:47;99449.91;;;11.46;100.00
80393;BME280;69719;45.544;10.218;2023-11-21T00:14:12;99437.09;;;11.44;100.00
80393;BME280;69719;45.544;10.218;2023-11-21T00:16:40;99441.16;;;11.52;100.00
80393;BME280;69719;45.544;10.218;2023-11-21T00:19:05;99435.81;;;11.58;100.00
80393;BME280;69719;45.544;10.218;2023-11-21T00:21:31;99438.13;;;11.43;100.00
80393;BME280;69719;45.544;10.218;2023-11-21T00:23:57;99432.81;;;11.38;100.00
80393;BME280;69719;45.544;10.218;2023-11-21T00:26:23;99433.13;;;11.42;100.00
80393;BME280;69719;45.544;10.218;2023-11-21T00:28:50;99437.09;;;11.44;100.00
80393;BME280;69719;45.544;10.218;2023-11-21T00:31:15;99430.31;;;11.43;100.00
80393;BME280;69719;45.544;10.218;2023-11-21T00:33:41;99435.94;;;11.52;100.00
80393;BME280;69719;45.544;10.218;2023-11-21T00:36:07;99443.59;;;11.70;100.00
80393;BME280;69719;45.544;10.218;2023-11-21T00:38:35;99454.81;;;11.71;100.00
80393;BME280;69719;45.544;10.218;2023-11-21T00:41:01;99454.13;;;11.63;100.00
80393;BME280;69719;45.544;10.218;2023-11-21T00:43:26;99451.31;;;11.65;100.00
80393;BME280;69719;45.544;10.218;2023-11-21T00:45:52;99446.56;;;11.50;100.00
80393;BME280;69719;45.544;10.218;2023-11-21T00:48:17;99446.78;;;11.60;100.00
80393;BME280;69719;45.544;10.218;2023-11-21T00:50:44;99439.44;;;11.57;100.00
80393;BME280;69719;45.544;10.218;2023-11-21T00:53:09;99431.28;;;11.54;100.00
80393;BME280;69719;45.544;10.218;2023-11-21T00:55:36;99431.06;;;11.67;100.00
80393;BME280;69719;45.544;10.218;2023-11-21T00:58:04;99432.09;;;11.54;100.00
80393;BME280;69719;45.544;10.218;2023-11-21T01:00:34;99432.34;;;11.41;100.00
80393;BME280;69719;45.544;10.218;2023-11-21T01:03:00;99434.41;;;11.39;100.00
80393;BME280;69719;45.544;10.218;2023-11-21T01:05:25;99426.09;;;11.42;100.00
80393;BME280;69719;45.544;10.218;2023-11-21T01:07:52;99425.66;;;11.34;100.00
80393;BME280;69719;45.544;10.218;2023-11-21T01:10:17;99427.16;;;11.41;100.00
80393;BME280;69719;45.544;10.218;2023-11-21T01:12:43;99421.25;;;11.46;100.00
80393;BME280;69719;45.544;10.218;2023-11-21T01:15:08;99416.47;;;11.43;100.00
80393;BME280;69719;45.544;10.218;2023-11-21T01:17:34;99412.63;;;11.45;100.00
80393;BME280;69719;45.544;10.218;2023-11-21T01:20:01;99416.94;;;11.40;100.00
80393;BME280;69719;45.544;10.218;2023-11-21T01:22:28;99412.34;;;11.30;100.00
80393;BME280;69719;45.544;10.218;2023-11-21T01:24:54;99420.72;;;11.21;100.00
80393;BME280;69719;45.544;10.218;2023-11-21T01:27:20;99415.06;;;11.24;100.00
80393;BME280;69719;45.544;10.218;2023-11-21T01:29:45;99414.81;;;11.25;100.00
80393;BME280;69719;45.544;10.218;2023-11-21T01:32:11;99415.84;;;11.24;100.00
80393;BME280;69719;45.544;10.218;2023-11-21T01:34:37;99427.28;;;11.23;100.00
80393;BME280;69719;45.544;10.218;2023-11-21T01:37:03;99421.84;;;11.25;100.00
80393;BME280;69719;45.544;10.218;2023-11-21T01:39:30;99418.91;;;11.33;100.00
80393;BME280;69719;45.544;10.218;2023-11-21T01:41:57;99421.25;;;11.34;100.00
80393;BME280;69719;45.544;10.218;2023-11-21T01:44:24;99419.03;;;11.26;100.00
80393;BME280;69719;45.544;10.218;2023-11-21T01:46:50;99416.06;;;11.34;100.00
80393;BME280;69719;45.544;10.218;2023-11-21T01:49:16;99408.34;;;11.39;100.00
80393;BME280;69719;45.544;10.218;2023-11-21T01:51:44;99403.28;;;11.33;100.00
80393;BME280;69719;45.544;10.218;2023-11-21T01:54:12;99398.19;;;11.26;100.00
80393;BME280;69719;45.544;10.218;2023-11-21T01:56:38;99399.44;;;11.24;100.00
80393;BME280;69719;45.544;10.218;2023-11-21T01:59:04;99392.31;;;11.19;100.00
80393;BME280;69719;45.544;10.218;2023-11-21T02:01:33;99401.00;;;11.25;100.00
80393;BME280;69719;45.544;10.218;2023-11-21T02:03:59;99385.84;;;11.22;100.00
80393;BME280;69719;45.544;10.218;2023-11-21T02:06:24;99392.41;;;11.24;100.00
80393;BME280;69719;45.544;10.218;2023-11-21T02:08:51;99400.00;;;11.14;100.00
80393;BME280;69719;45.544;10.218;2023-11-21T02:11:17;99393.09;;;11.20;100.00
80393;BME280;69719;45.544;10.218;2023-11-21T02:13:43;99386.66;;;11.22;100.00
80393;BME280;69719;45.544;10.218;2023-11-21T02:16:10;99386.97;;;11.26;100.00
80393;BME280;69719;45.544;10.218;2023-11-21T02:18:38;99384.25;;;11.21;100.00
80393;BME280;69719;45.544;10.218;2023-11-21T02:21:04;99382.31;;;11.28;100.00
80393;BME280;69719;45.544;10.218;2023-11-21T02:23:30;99376.56;;;11.26;100.00
80393;BME280;69719;45.544;10.218;2023-11-21T02:25:55;99374.50;;;11.28;100.00
80393;BME280;69719;45.544;10.218;2023-11-21T02:28:21;99373.13;;;11.37;100.00
80393;BME280;69719;45.544;10.218;2023-11-21T02:30:54;99368.06;;;11.30;100.00
80393;BME280;69719;45.544;10.218;2023-11-21T02:33:24;99358.56;;;11.24;100.00
80393;BME280;69719;45.544;10.218;2023-11-21T02:35:49;99366.00;;;11.32;100.00
80393;BME280;69719;45.544;10.218;2023-11-21T02:38:20;99364.34;;;11.26;100.00
80393;BME280;69719;45.544;10.218;2023-11-21T02:40:46;99353.91;;;11.26;100.00
80393;BME280;69719;45.544;10.218;2023-11-21T02:43:12;99359.34;;;11.25;100.00
80393;BME280;69719;45.544;10.218;2023-11-21T02:45:37;99346.91;;;11.27;100.00
80393;BME280;69719;45.544;10.218;2023-11-21T02:48:03;99343.41;;;11.21;100.00
80393;BME280;69719;45.544;10.218;2023-11-21T02:50:29;99342.56;;;11.32;100.00
80393;BME280;69719;45.544;10.218;2023-11-21T02:52:55;99332.59;;;11.29;100.00
80393;BME280;69719;45.544;10.218;2023-11-21T02:55:23;99331.22;;;11.38;100.00
80393;BME280;69719;45.544;10.218;2023-11-21T02:57:50;99337.81;;;11.29;100.00
80393;BME280;69719;45.544;10.218;2023-11-21T03:00:16;99323.88;;;11.35;100.00
80393;BME280;69719;45.544;10.218;2023-11-21T03:02:43;99322.00;;;11.47;100.00
80393;BME280;69719;45.544;10.218;2023-11-21T03:05:08;99321.38;;;11.57;100.00
80393;BME280;69719;45.544;10.218;2023-11-21T03:07:36;99319.50;;;11.52;100.00
80393;BME280;69719;45.544;10.218;2023-11-21T03:10:02;99322.66;;;11.54;100.00
80393;BME280;69719;45.544;10.218;2023-11-21T03:12:29;99326.19;;;11.48;100.00
80393;BME280;69719;45.544;10.218;2023-11-21T03:14:55;99323.56;;;11.48;100.00
80393;BME280;69719;45.544;10.218;2023-11-21T03:17:20;99317.31;;;11.61;100.00
80393;BME280;69719;45.544;10.218;2023-11-21T03:19:46;99316.97;;;11.69;100.00
80393;BME280;69719;45.544;10.218;2023-11-21T03:22:12;99312.53;;;11.70;100.00
80393;BME280;69719;45.544;10.218;2023-11-21T03:24:37;99308.59;;;11.55;100.00
80393;BME280;69719;45.544;10.218;2023-11-21T03:27:04;99305.84;;;11.45;100.00
80393;BME280;69719;45.544;10.218;2023-11-21T03:29:29;99301.91;;;11.31;100.00
80393;BME280;69719;45.544;10.218;2023-11-21T03:31:55;99292.53;;;11.30;100.00
80393;BME280;69719;45.544;10.218;2023-11-21T03:34:27;99297.50;;;11.32;100.00
80393;BME280;69719;45.544;10.218;2023-11-21T03:36:53;99309.66;;;11.26;100.00
80393;BME280;69719;45.544;10.218;2023-11-21T03:39:20;99301.91;;;11.31;100.00
80393;BME280;69719;45.544;10.218;2023-11-21T03:41:46;99303.22;;;11.45;100.00
80393;BME280;69719;45.544;10.218;2023-11-21T03:44:11;99301.19;;;11.47;100.00
80393;BME280;69719;45.544;10.218;2023-11-21T03:46:37;99304.44;;;11.54;100.00
80393;BME280;69719;45.544;10.218;2023-11-21T03:49:02;99310.81;;;11.63;100.00
80393;BME280;69719;45.544;10.218;2023-11-21T03:51:28;99315.16;;;11.70;100.00
80393;BME280;69719;45.544;10.218;2023-11-21T03:53:54;99314.84;;;11.54;100.00
80393;BME280;69719;45.544;10.218;2023-11-21T03:56:19;99320.69;;;11.33;100.00
80393;BME280;69719;45.544;10.218;2023-11-21T03:58:47;99322.19;;;11.29;100.00
80393;BME280;69719;45.544;10.218;2023-11-21T04:01:23;99313.41;;;11.19;100.00
80393;BME280;69719;45.544;10.218;2023-11-21T04:03:49;99321.63;;;11.27;100.00
80393;BME280;69719;45.544;10.218;2023-11-21T04:06:16;99329.94;;;11.24;100.00
80393;BME280;69719;45.544;10.218;2023-11-21T04:08:45;99327.78;;;11.21;100.00
80393;BME280;69719;45.544;10.218;2023-11-21T04:11:11;99325.66;;;11.18;100.00
80393;BME280;69719;45.544;10.218;2023-11-21T04:13:40;99325.34;;;11.31;100.00
80393;BME280;69719;45.544;10.218;2023-11-21T04:16:06;99322.44;;;11.28;100.00
80393;BME280;69719;45.544;10.218;2023-11-21T04:18:33;99316.06;;;11.35;100.00
80393;BME280;69719;45.544;10.218;2023-11-21T04:20:59;99313.00;;;11.38;100.00
80393;BME280;69719;45.544;10.218;2023-11-21T04:23:24;99313.78;;;11.39;100.00
80393;BME280;69719;45.544;10.218;2023-11-21T04:25:50;99314.72;;;11.33;100.00
80393;BME280;69719;45.544;10.218;2023-11-21T04:28:15;99324.34;;;11.32;100.00
80393;BME280;69719;45.544;10.218;2023-11-21T04:30:41;99321.00;;;11.20;100.00
80393;BME280;69719;45.544;10.218;2023-11-21T04:33:07;99322.94;;;11.13;100.00
80393;BME280;69719;45.544;10.218;2023-11-21T04:35:33;99316.41;;;11.27;100.00
80393;BME280;69719;45.544;10.218;2023-11-21T04:37:58;99309.66;;;11.26;100.00
80393;BME280;69719;45.544;10.218;2023-11-21T04:40:25;99312.56;;;11.30;100.00
80393;BME280;69719;45.544;10.218;2023-11-21T04:42:52;99312.16;;;11.21;100.00
80393;BME280;69719;45.544;10.218;2023-11-21T04:45:17;99312.63;;;11.18;100.00
80393;BME280;69719;45.544;10.218;2023-11-21T04:47:43;99312.53;;;11.13;100.00
80393;BME280;69719;45.544;10.218;2023-11-21T04:50:09;99317.41;;;11.10;100.00
80393;BME280;69719;45.544;10.218;2023-11-21T04:52:34;99315.31;;;11.23;100.00
80393;BME280;69719;45.544;10.218;2023-11-21T04:55:00;99316.78;;;11.31;100.00
80393;BME280;69719;45.544;10.218;2023-11-21T04:57:27;99310.25;;;11.45;100.00
80393;BME280;69719;45.544;10.218;2023-11-21T04:59:54;99313.66;;;11.45;100.00
80393;BME280;69719;45.544;10.218;2023-11-21T05:02:19;99308.81;;;11.37;100.00
80393;BME280;69719;45.544;10.218;2023-11-21T05:04:46;99310.53;;;11.32;100.00
80393;BME280;69719;45.544;10.218;2023-11-21T05:07:12;99308.47;;;11.34;100.00
80393;BME280;69719;45.544;10.218;2023-11-21T05:09:44;99314.19;;;11.19;100.00
80393;BME280;69719;45.544;10.218;2023-11-21T05:12:12;99303.31;;;11.22;100.00
80393;BME280;69719;45.544;10.218;2023-11-21T05:14:38;99301.34;;;11.29;100.00
80393;BME280;69719;45.544;10.218;2023-11-21T05:17:03;99299.88;;;11.33;100.00
80393;BME280;69719;45.544;10.218;2023-11-21T05:19:33;99291.75;;;11.30;100.00
80393;BME280;69719;45.544;10.218;2023-11-21T05:22:00;99297.47;;;11.15;100.00
80393;BME280;69719;45.544;10.218;2023-11-21T05:24:26;99298.53;;;11.03;100.00
80393;BME280;69719;45.544;10.218;2023-11-21T05:26:51;99304.53;;;11.03;100.00
80393;BME280;69719;45.544;10.218;2023-11-21T05:29:18;99299.19;;;11.10;100.00
80393;BME280;69719;45.544;10.218;2023-11-21T05:31:43;99299.50;;;11.13;100.00
80393;BME280;69719;45.544;10.218;2023-11-21T05:34:09;99305.16;;;11.10;100.00
80393;BME280;69719;45.544;10.218;2023-11-21T05:36:34;99305.66;;;11.07;100.00
80393;BME280;69719;45.544;10.218;2023-11-21T05:39:00;99299.53;;;11.02;100.00
80393;BME280;69719;45.544;10.218;2023-11-21T05:41:25;99307.44;;;11.07;100.00
80393;BME280;69719;45.544;10.218;2023-11-21T05:43:51;99303.91;;;11.13;100.00
80393;BME280;69719;45.544;10.218;2023-11-21T05:46:16;99303.53;;;10.93;100.00
80393;BME280;69719;45.544;10.218;2023-11-21T05:48:42;99306.47;;;10.84;100.00
80393;BME280;69719;45.544;10.218;2023-11-21T05:51:08;99299.22;;;10.86;100.00
80393;BME280;69719;45.544;10.218;2023-11-21T05:53:33;99304.00;;;10.78;100.00
80393;BME280;69719;45.544;10.218;2023-11-21T05:55:59;99301.06;;;10.86;100.00
80393;BME280;69719;45.544;10.218;2023-11-21T05:58:25;99302.19;;;10.90;100.00
80393;BME280;69719;45.544;10.218;2023-11-21T06:00:50;99302.78;;;10.69;100.00
80393;BME280;69719;45.544;10.218;2023-11-21T06:03:16;99302.44;;;10.77;100.00
80393;BME280;69719;45.544;10.218;2023-11-21T06:05:42;99299.47;;;10.73;100.00
80393;BME280;69719;45.544;10.218;2023-11-21T06:08:08;99299.84;;;10.77;100.00
80393;BME280;69719;45.544;10.218;2023-11-21T06:10:34;99303.44;;;10.76;100.00
80393;BME280;69719;45.544;10.218;2023-11-21T06:12:59;99304.94;;;10.72;100.00
80393;BME280;69719;45.544;10.218;2023-11-21T06:15:25;99300.75;;;10.71;100.00
80393;BME280;69719;45.544;10.218;2023-11-21T06:17:51;99305.03;;;10.77;100.00
80393;BME280;69719;45.544;10.218;2023-11-21T06:20:21;99309.25;;;10.55;100.00
80393;BME280;69719;45.544;10.218;2023-11-21T06:22:48;99303.03;;;10.56;100.00
80393;BME280;69719;45.544;10.218;2023-11-21T06:25:15;99303.69;;;10.63;100.00
80393;BME280;69719;45.544;10.218;2023-11-21T06:27:42;99302.13;;;10.50;100.00
80393;BME280;69719;45.544;10.218;2023-11-21T06:30:08;99308.47;;;10.43;100.00
80393;BME280;69719;45.544;10.218;2023-11-21T06:32:38;99301.56;;;10.60;100.00
80393;BME280;69719;45.544;10.218;2023-11-21T06:35:06;99297.59;;;10.46;100.00
80393;BME280;69719;45.544;10.218;2023-11-21T06:37:32;99299.88;;;10.54;100.00
80393;BME280;69719;45.544;10.218;2023-11-21T06:39:59;99303.03;;;10.56;100.00
80393;BME280;69719;45.544;10.218;2023-11-21T06:42:25;99297.84;;;10.56;100.00
80393;BME280;69719;45.544;10.218;2023-11-21T06:44:52;99298.75;;;10.38;100.00
80393;BME280;69719;45.544;10.218;2023-11-21T06:47:19;99299.66;;;10.32;100.00
80393;BME280;69719;45.544;10.218;2023-11-21T06:49:50;99297.38;;;10.36;100.00
80393;BME280;69719;45.544;10.218;2023-11-21T06:52:16;99292.75;;;10.38;100.00
80393;BME280;69719;45.544;10.218;2023-11-21T06:54:41;99289.22;;;10.44;100.00
80393;BME280;69719;45.544;10.218;2023-11-21T06:57:07;99288.03;;;10.35;100.00
80393;BME280;69719;45.544;10.218;2023-11-21T06:59:33;99287.88;;;10.53;100.00
80393;BME280;69719;45.544;10.218;2023-11-21T07:01:58;99286.19;;;10.47;100.00
80393;BME280;69719;45.544;10.218;2023-11-21T07:04:24;99292.31;;;10.29;100.00
80393;BME280;69719;45.544;10.218;2023-11-21T07:06:51;99278.28;;;10.19;100.00
80393;BME280;69719;45.544;10.218;2023-11-21T07:09:17;99283.28;;;10.43;100.00
80393;BME280;69719;45.544;10.218;2023-11-21T07:11:42;99278.38;;;10.47;100.00
80393;BME280;69719;45.544;10.218;2023-11-21T07:14:08;99279.41;;;10.46;100.00
80393;BME280;69719;45.544;10.218;2023-11-21T07:16:37;99280.88;;;10.53;100.00
80393;BME280;69719;45.544;10.218;2023-11-21T07:19:07;99280.19;;;10.46;100.00
80393;BME280;69719;45.544;10.218;2023-11-21T07:21:35;99284.72;;;10.51;100.00
80393;BME280;69719;45.544;10.218;2023-11-21T07:24:05;99282.66;;;10.64;100.00
80393;BME280;69719;45.544;10.218;2023-11-21T07:26:32;99276.56;;;10.59;100.00
80393;BME280;69719;45.544;10.218;2023-11-21T07:28:58;99282.00;;;10.46;100.00
80393;BME280;69719;45.544;10.218;2023-11-21T07:31:24;99279.97;;;10.48;100.00
80393;BME280;69719;45.544;10.218;2023-11-21T07:33:51;99284.72;;;10.51;100.00
80393;BME280;69719;45.544;10.218;2023-11-21T07:36:17;99278.28;;;10.53;100.00
80393;BME280;69719;45.544;10.218;2023-11-21T07:38:49;99288.47;;;10.43;100.00
80393;BME280;69719;45.544;10.218;2023-11-21T07:41:15;99286.66;;;10.32;100.00
80393;BME280;69719;45.544;10.218;2023-11-21T07:43:44;99286.50;;;10.62;100.00
80393;BME280;69719;45.544;10.218;2023-11-21T07:46:11;99285.72;;;10.61;100.00
80393;BME280;69719;45.544;10.218;2023-11-21T07:48:38;99296.00;;;10.68;100.00
80393;BME280;69719;45.544;10.218;2023-11-21T07:51:04;99291.47;;;10.75;100.00
80393;BME280;69719;45.544;10.218;2023-11-21T07:53:30;99286.34;;;10.80;100.00
80393;BME280;69719;45.544;10.218;2023-11-21T07:55:57;99289.56;;;10.70;100.00
80393;BME280;69719;45.544;10.218;2023-11-21T07:58:23;99298.59;;;10.79;100.00
80393;BME280;69719;45.544;10.218;2023-11-21T08:00:49;99290.38;;;10.99;100.00
80393;BME280;69719;45.544;10.218;2023-11-21T08:03:16;99295.13;;;11.02;100.00
80393;BME280;69719;45.544;10.218;2023-11-21T08:05:42;99285.59;;;11.08;100.00
80393;BME280;69719;45.544;10.218;2023-11-21T08:08:07;99282.41;;;11.17;100.00
80393;BME280;69719;45.544;10.218;2023-11-21T08:10:58;99285.00;;;11.17;100.00
80393;BME280;69719;45.544;10.218;2023-11-21T08:13:26;99287.88;;;11.04;100.00
80393;BME280;69719;45.544;10.218;2023-11-21T08:15:56;99289.97;;;11.19;100.00
80393;BME280;69719;45.544;10.218;2023-11-21T08:18:25;99279.81;;;11.34;100.00
80393;BME280;69719;45.544;10.218;2023-11-21T08:20:50;99283.59;;;11.26;100.00
80393;BME280;69719;45.544;10.218;2023-11-21T08:23:16;99281.56;;;11.28;100.00
80393;BME280;69719;45.544;10.218;2023-11-21T08:25:46;99290.72;;;11.31;100.00
80393;BME280;69719;45.544;10.218;2023-11-21T08:28:12;99305.00;;;11.28;100.00
80393;BME280;69719;45.544;10.218;2023-11-21T08:30:39;99303.78;;;11.19;100.00
80393;BME280;69719;45.544;10.218;2023-11-21T08:33:07;99308.31;;;11.12;100.00
80393;BME280;69719;45.544;10.218;2023-11-21T08:35:34;99302.78;;;11.20;100.00
80393;BME280;69719;45.544;10.218;2023-11-21T08:37:59;99309.84;;;11.25;100.00
80393;BME280;69719;45.544;10.218;2023-11-21T08:40:25;99293.53;;;11.29;100.00
80393;BME280;69719;45.544;10.218;2023-11-21T08:42:51;99295.13;;;11.30;100.00
80393;BME280;69719;45.544;10.218;2023-11-21T08:45:21;99287.97;;;11.37;100.00
80393;BME280;69719;45.544;10.218;2023-11-21T08:47:47;99280.34;;;11.47;100.00
80393;BME280;69719;45.544;10.218;2023-11-21T08:50:13;99283.38;;;11.73;100.00
80393;BME280;69719;45.544;10.218;2023-11-21T08:52:39;99273.06;;;11.78;100.00
80393;BME280;69719;45.544;10.218;2023-11-21T08:55:06;99272.34;;;11.82;100.00
80393;BME280;69719;45.544;10.218;2023-11-21T08:57:38;99263.63;;;11.93;100.00
80393;BME280;69719;45.544;10.218;2023-11-21T09:00:06;99266.81;;;11.79;100.00
80393;BME280;69719;45.544;10.218;2023-11-21T09:02:35;99261.38;;;11.80;100.00
80393;BME280;69719;45.544;10.218;2023-11-21T09:05:03;99256.72;;;11.82;100.00
80393;BME280;69719;45.544;10.218;2023-11-21T09:07:29;99253.38;;;11.70;100.00
80393;BME280;69719;45.544;10.218;2023-11-21T09:09:56;99252.38;;;11.71;100.00
80393;BME280;69719;45.544;10.218;2023-11-21T09:12:21;99252.59;;;11.70;100.00
80393;BME280;69719;45.544;10.218;2023-11-21T09:14:47;99228.13;;;11.71;100.00
80393;BME280;69719;45.544;10.218;2023-11-21T09:17:13;99258.25;;;12.00;100.00
80393;BME280;69719;45.544;10.218;2023-11-21T09:19:42;99249.34;;;11.96;100.00
80393;BME280;69719;45.544;10.218;2023-11-21T09:22:15;99252.19;;;11.94;100.00
80393;BME280;69719;45.544;10.218;2023-11-21T09:24:44;99254.63;;;12.01;100.00
80393;BME280;69719;45.544;10.218;2023-11-21T09:27:10;99256.16;;;11.97;100.00
80393;BME280;69719;45.544;10.218;2023-11-21T09:29:36;99254.34;;;11.97;100.00
80393;BME280;69719;45.544;10.218;2023-11-21T09:32:04;99250.28;;;12.06;100.00
80393;BME280;69719;45.544;10.218;2023-11-21T09:34:34;99244.69;;;12.14;100.00
80393;BME280;69719;45.544;10.218;2023-11-21T09:37:06;99248.88;;;12.37;100.00
80393;BME280;69719;45.544;10.218;2023-11-21T09:39:32;99250.22;;;12.39;100.00
80393;BME280;69719;45.544;10.218;2023-11-21T09:42:12;99243.78;;;12.47;100.00
80393;BME280;69719;45.544;10.218;2023-11-21T09:44:46;99238.56;;;12.47;100.00
80393;BME280;69719;45.544;10.218;2023-11-21T09:47:15;99227.13;;;12.48;100.00
80393;BME280;69719;45.544;10.218;2023-11-21T09:49:45;99229.22;;;12.51;100.00
80393;BME280;69719;45.544;10.218;2023-11-21T09:52:22;99225.34;;;12.54;100.00
80393;BME280;69719;45.544;10.218;2023-11-21T09:54:52;99225.88;;;12.56;100.00
80393;BME280;69719;45.544;10.218;2023-11-21T09:57:20;99221.09;;;12.48;100.00
80393;BME280;69719;45.544;10.218;2023-11-21T09:59:50;99230.34;;;12.55;100.00
80393;BME280;69719;45.544;10.218;2023-11-21T10:02:17;99234.50;;;12.34;100.00
80393;BME280;69719;45.544;10.218;2023-11-21T10:04:44;99241.78;;;12.32;100.00
80393;BME280;69719;45.544;10.218;2023-11-21T10:07:11;99227.41;;;12.30;100.00
80393;BME280;69719;45.544;10.218;2023-11-21T10:09:38;99228.00;;;12.37;100.00
80393;BME280;69719;45.544;10.218;2023-11-21T10:12:06;99216.59;;;12.43;100.00
80393;BME280;69719;45.544;10.218;2023-11-21T10:14:34;99210.00;;;12.35;100.00
80393;BME280;69719;45.544;10.218;2023-11-21T10:17:02;99198.78;;;12.35;100.00
80393;BME280;69719;45.544;10.218;2023-11-21T10:19:29;99198.69;;;12.30;100.00
80393;BME280;69719;45.544;10.218;2023-11-21T10:21:55;99204.00;;;12.35;100.00
80393;BME280;69719;45.544;10.218;2023-11-21T10:24:23;99204.78;;;12.35;100.00
80393;BME280;69719;45.544;10.218;2023-11-21T10:26:48;99201.75;;;12.44;100.00
80393;BME280;69719;45.544;10.218;2023-11-21T10:29:16;99202.03;;;12.47;100.00
80393;BME280;69719;45.544;10.218;2023-11-21T10:31:49;99196.00;;;12.63;100.00
80393;BME280;69719;45.544;10.218;2023-11-21T10:34:17;99176.72;;;12.69;100.00
80393;BME280;69719;45.544;10.218;2023-11-21T10:36:43;99180.59;;;12.88;100.00
80393;BME280;69719;45.544;10.218;2023-11-21T10:39:09;99178.41;;;12.80;100.00
80393;BME280;69719;45.544;10.218;2023-11-21T10:41:38;99178.25;;;12.65;100.00
80393;BME280;69719;45.544;10.218;2023-11-21T10:44:05;99172.84;;;12.72;100.00
80393;BME280;69719;45.544;10.218;2023-11-21T10:46:32;99171.78;;;12.68;100.00
80393;BME280;69719;45.544;10.218;2023-11-21T10:48:59;99167.50;;;12.62;100.00
80393;BME280;69719;45.544;10.218;2023-11-21T10:51:25;99170.38;;;12.60;100.00
80393;BME280;69719;45.544;10.218;2023-11-21T10:53:53;99163.31;;;12.82;100.00
80393;BME280;69719;45.544;10.218;2023-11-21T10:56:22;99174.19;;;12.74;100.00
80393;BME280;69719;45.544;10.218;2023-11-21T10:58:52;99179.53;;;12.63;100.00
80393;BME280;69719;45.544;10.218;2023-11-21T11:01:18;99176.38;;;12.61;100.00
80393;BME280;69719;45.544;10.218;2023-11-21T11:03:47;99178.66;;;12.79;100.00
80393;BME280;69719;45.544;10.218;2023-11-21T11:06:14;99173.28;;;12.90;100.00
80393;BME280;69719;45.544;10.218;2023-11-21T11:08:40;99172.19;;;13.08;100.00
80393;BME280;69719;45.544;10.218;2023-11-21T11:11:07;99173.56;;;13.15;100.00
80393;BME280;69719;45.544;10.218;2023-11-21T11:13:33;99176.22;;;13.21;100.00
80393;BME280;69719;45.544;10.218;2023-11-21T11:16:00;99179.97;;;13.30;100.00
80393;BME280;69719;45.544;10.218;2023-11-21T11:18:28;99177.00;;;13.21;100.00
80393;BME280;69719;45.544;10.218;2023-11-21T11:21:01;99181.00;;;13.29;100.00
80393;BME280;69719;45.544;10.218;2023-11-21T11:26:28;99184.88;;;12.99;100.00
80393;BME280;69719;45.544;10.218;2023-11-21T11:29:23;99192.00;;;12.82;100.00
80393;BME280;69719;45.544;10.218;2023-11-21T11:34:48;99180.41;;;13.22;100.00
80393;BME280;69719;45.544;10.218;2023-11-21T11:37:18;99185.94;;;13.25;100.00
80393;BME280;69719;45.544;10.218;2023-11-21T11:39:44;99178.69;;;13.37;100.00
80393;BME280;69719;45.544;10.218;2023-11-21T11:42:14;99185.72;;;13.32;100.00
80393;BME280;69719;45.544;10.218;2023-11-21T11:47:31;99171.66;;;13.38;100.00
80393;BME280;69719;45.544;10.218;2023-11-21T11:50:12;99183.13;;;13.32;100.00
80393;BME280;69719;45.544;10.218;2023-11-21T11:52:40;99185.41;;;13.28;100.00
80393;BME280;69719;45.544;10.218;2023-11-21T11:55:17;99173.22;;;13.39;100.00
80393;BME280;69719;45.544;10.218;2023-11-21T11:57:54;99181.38;;;13.42;100.00
80393;BME280;69719;45.544;10.218;2023-11-21T12:05:23;99170.78;;;13.00;100.00
80393;BME280;69719;45.544;10.218;2023-11-21T12:07:57;99176.47;;;13.19;100.00
80393;BME280;69719;45.544;10.218;2023-11-21T12:10:24;99178.63;;;13.27;100.00
80393;BME280;69719;45.544;10.218;2023-11-21T12:13:00;99179.66;;;13.26;100.00
80393;BME280;69719;45.544;10.218;2023-11-21T12:15:26;99178.09;;;13.25;100.00
80393;BME280;69719;45.544;10.218;2023-11-21T12:17:54;99181.25;;;13.27;100.00
80393;BME280;69719;45.544;10.218;2023-11-21T12:20:21;99178.16;;;13.35;100.00
80393;BME280;69719;45.544;10.218;2023-11-21T12:22:49;99173.34;;;13.22;100.00
80393;BME280;69719;45.544;10.218;2023-11-21T12:25:20;99181.69;;;13.51;100.00
80393;BME280;69719;45.544;10.218;2023-11-21T12:27:48;99185.31;;;13.45;100.00
80393;BME280;69719;45.544;10.218;2023-11-21T12:30:16;99186.84;;;13.41;100.00
80393;BME280;69719;45.544;10.218;2023-11-21T12:32:43;99187.13;;;13.44;100.00
80393;BME280;69719;45.544;10.218;2023-11-21T12:35:12;99188.94;;;13.44;100.00
80393;BME280;69719;45.544;10.218;2023-11-21T12:37:38;99191.28;;;13.08;100.00
80393;BME280;69719;45.544;10.218;2023-11-21T12:40:06;99185.19;;;13.30;100.00
80393;BME280;69719;45.544;10.218;2023-11-21T12:42:34;99183.59;;;13.29;100.00
80393;BME280;69719;45.544;10.218;2023-11-21T12:47:43;99169.31;;;13.09;100.00
80393;BME280;69719;45.544;10.218;2023-11-21T12:50:10;99172.41;;;13.33;100.00
80393;BME280;69719;45.544;10.218;2023-11-21T12:52:43;99162.53;;;13.40;100.00
80393;BME280;69719;45.544;10.218;2023-11-21T12:55:20;99153.75;;;13.56;100.00
80393;BME280;69719;45.544;10.218;2023-11-21T12:57:54;99159.53;;;13.58;100.00